CST,Max TemperatureF,Mean TemperatureF,Min TemperatureF,Max Dew PointF,MeanDew PointF,Min DewpointF,Max Humidity, Mean Humidity, Min Humidity, Max Sea Level PressureIn, Mean Sea Level PressureIn, Min Sea Level PressureIn, Max VisibilityMiles, Mean VisibilityMiles, Min VisibilityMiles, Max Wind SpeedMPH, Mean Wind SpeedMPH, Max Gust SpeedMPH,PrecipitationIn, CloudCover, Events, WindDirDegrees
2012-12-1,78,72,66,66,63,61,88,75,54,30.16,30.07,30.02,8,8,7,14,4,,0.00,2,,46
2012-12-2,78,71,64,66,63,59,88,73,61,30.14,30.06,29.78,8,8,7,18,6,24,0.00,3,,78
2012-12-3,78,70,62,63,60,57,83,68,54,30.14,30.07,30.01,8,7,7,12,5,,0.00,2,,77
2012-12-4,78,68,59,63,59,55,94,69,47,30.16,30.07,29.86,8,7,7,14,5,,0.00,2,,79
2012-12-5,78,68,59,63,58,55,94,71,51,30.13,30.02,29.94,8,7,7,9,3,,0.00,2,,58
2012-12-6,78,68,59,61,57,52,94,69,39,30.04,29.95,29.89,8,7,7,9,3,,0.00,2,,22
2012-12-7,78,66,55,63,57,52,94,72,51,29.99,29.92,29.86,8,8,7,10,2,,0.00,1,,92
2012-12-8,80,68,57,64,57,52,88,70,45,30.02,29.95,29.90,8,8,7,8,3,,0.00,2,,108
2012-12-9,80,68,57,68,60,52,88,71,48,30.05,29.96,29.89,8,7,6,13,3,,0.55,3,,75
2012-12-10,84,76,68,75,71,63,100,86,66,29.98,29.91,29.85,8,7,6,12,3,,0.00,3,,154
2012-12-11,80,74,68,75,71,63,100,88,73,29.99,29.92,29.86,8,7,7,10,3,,7.45,4,,139
2012-12-12,80,73,66,68,62,55,94,71,54,30.10,30.01,29.58,8,6,4,9,3,,6.50,5,Rain,89
2012-12-13,75,72,69,70,67,59,94,83,64,30.14,30.08,30.03,7,6,0,14,8,,1.25,5,Rain,27
2012-12-14,77,70,64,66,63,59,88,75,61,30.13,30.06,29.99,8,7,7,14,6,,0.00,1,,36
2012-12-15,78,66,55,64,60,54,94,80,50,30.07,29.99,29.94,8,7,7,9,2,,0.00,2,,102
2012-12-16,80,70,60,64,62,57,94,78,54,30.02,29.94,29.88,8,8,7,12,3,,0.00,2,,113
2012-12-17,78,69,60,70,65,59,94,83,65,29.97,29.91,29.87,8,8,7,10,2,,0.00,3,,122
2012-12-18,84,76,68,72,68,64,94,84,55,30.02,29.95,29.89,8,7,7,8,2,,0.15,3,Rain,94
2012-12-19,80,74,68,70,67,64,94,85,69,30.05,29.97,29.92,8,8,7,13,4,,0.00,2,,113
2012-12-20,80,73,66,68,65,63,94,80,58,30.08,30.00,29.95,10,8,7,14,4,,0.00,2,,115
2012-12-21,77,70,62,68,61,54,94,73,56,30.21,30.11,30.03,8,7,6,21,8,29,0.00,3,,17
2012-12-22,75,70,66,57,55,54,68,60,50,30.27,30.18,30.13,8,8,7,16,12,24,0.00,3,,50
2012-12-23,73,63,53,55,54,50,94,71,50,30.21,30.11,30.04,8,8,7,10,4,,0.00,2,,77
2012-12-24,75,64,53,61,56,52,94,78,53,30.09,30.00,29.92,8,8,7,10,2,,0.00,3,,102
2012-12-25,78,66,55,64,59,52,88,76,47,29.97,29.89,29.80,8,8,7,12,2,,0.00,2,,130
2012-12-26,80,73,66,70,63,54,88,71,51,30.01,29.92,29.84,8,7,2,12,4,,0.00,4,Rain,59
2012-12-27,75,72,69,64,61,57,78,66,57,30.03,29.94,29.88,7,7,6,14,8,20,1.00,5,,59
2012-12-28,80,74,69,73,69,61,100,83,69,29.99,29.92,29.86,8,7,6,10,4,,0.00,3,,136
2012-12-29,80,72,64,72,68,63,94,85,70,30.12,30.01,29.92,8,8,7,14,2,,0.00,2,,60
2012-12-30,73,71,69,66,62,57,78,70,64,30.23,30.15,30.10,7,7,7,16,13,,0.00,5,,50
2012-12-31,75,70,64,63,59,55,83,69,50,30.18,30.10,30.03,8,8,7,10,5,,0.00,3,,71